Montreal / Les Cèdres Airport

CSS3 · Quebec, Canada

METAR history CSS3 · Montreal / Les Cèdres Airport

Below you see METARs of the last few days. Select a year to browse through older METARs, from the year 2007 onwards.

February 23, 2024

Time Code Weather Temp. Visibility Ceiling Wind METAR/SPECI
09:00
M
2 °C 3 mi 1,800 ft 230° 230° 7 kt METAR CYUL 231400Z 23007KT 3SM BR FEW008 OVC018 02/01 A2949 RMK SF2SC6 SLP989
08:33
M
2 °C 4 mi 1,800 ft 200° 200° 6 kt METAR CYUL 231333Z 20006KT 4SM BR SCT008 OVC018 02/01 A2949 RMK SF4SC4 SLP989
08:00
M
2 °C 4 mi 1,300 ft 230° 230° 5 kt METAR CYUL 231300Z 23005KT 4SM BR SCT007 OVC013 02/01 A2949 RMK SF4ST4 SLP991
07:43
M
2 °C 6 mi 1,300 ft 210° 210° 4 kt METAR CYUL 231243Z 21004KT 6SM BR SCT006 OVC013 02/01 A2949 RMK SF4ST4 SLP991
07:00
I
2 °C 3 mi 600 ft 200° 200° 6 kt METAR CYUL 231200Z 20006KT 3SM BR OVC006 02/01 A2949 RMK ST8 SLP990
06:00
I
2 °C 15 mi 800 ft 210° 210° 4 kt METAR CYUL 231100Z 21004KT 15SM OVC008 02/00 A2950 RMK ST8 SLP993
05:00
I
2 °C 15 mi 900 ft 160° 160° 6 kt METAR CYUL 231000Z 16006KT 15SM OVC009 02/01 A2950 RMK ST8 SLP992
04:00
I
2 °C 15 mi 800 ft 150° 150° 7 kt METAR CYUL 230900Z 15007KT 15SM OVC008 02/01 A2950 RMK ST8 SLP992
03:00
I
2 °C 15 mi 800 ft 170° 170° 7 kt METAR CYUL 230800Z 17007KT 15SM OVC008 02/01 A2952 RMK ST8 SLP000
02:36
I
1 °C 15 mi 900 ft 150° 150° 6 kt METAR CYUL 230736Z 15006KT 15SM OVC009 01/01 A2953 RMK ST8 SLP004
02:00
M
1 °C 15 mi 1,000 ft 150° 150° 5 kt METAR CYUL 230700Z 15005KT 15SM OVC010 01/01 A2954 RMK ST8 SLP007
01:00
M
1 °C 15 mi 1,000 ft 140° 140° 3 kt METAR CYUL 230600Z 14003KT 15SM OVC010 01/00 A2956 RMK ST8 SLP012
00:00
M
2 °C 15 mi 1,200 ft 150° 150° 4 kt METAR CYUL 230500Z 15004KT 15SM OVC012 02/M00 A2957 RMK ST8 SLP018

February 22, 2024

Time Code Weather Temp. Visibility Ceiling Wind METAR/SPECI
23:13
M
2 °C 15 mi 1,400 ft 150° 150° 2 kt METAR CYUL 230413Z 15002KT 15SM OVC014 02/M01 A2958 RMK ST8 SLP021
23:00
M
2 °C 15 mi 1,500 ft 150° 150° 2 kt METAR CYUL 230400Z 15002KT 15SM BKN015 OVC023 02/M01 A2959 RMK ST6SC2 SLP022
22:00
M
2 °C 15 mi 1,600 ft 180° 180° 5 kt METAR CYUL 230300Z 18005KT 15SM OVC016 02/M01 A2960 RMK ST8 SLP028
21:00
M
2 °C 15 mi 2,000 ft 150° 150° 3 kt METAR CYUL 230200Z 15003KT 15SM OVC020 02/M01 A2962 RMK SC8 SLP032
20:00
M
2 °C 15 mi 2,400 ft 140° 140° 5 kt METAR CYUL 230100Z 14005KT 15SM OVC024 02/M01 A2962 RMK SC8 SLP035
19:25
M
2 °C 15 mi 2,800 ft 140° 140° 3 kt METAR CYUL 230025Z 14003KT 15SM OVC028 02/M01 A2963 RMK SC8 SLP037
19:00
M
3 °C 15 mi 2,600 ft 120° 120° 5 kt METAR CYUL 230000Z 12005KT 15SM OVC026 03/M01 A2963 RMK SC8 SLP038
18:00
V
3 °C 15 mi 3,300 ft 120° 120° 3 kt METAR CYUL 222300Z 12003KT 15SM BKN033 OVC055 03/M01 A2964 RMK SC6SC2 SLP041
17:00
V
3 °C 15 mi 3,900 ft 110° 110° 5 kt METAR CYUL 222200Z 11005KT 15SM BKN039 OVC065 03/M01 A2964 RMK SC7SC1 SLP041
16:00
V
3 °C 15 mi 4,200 ft 120° 120° 4 kt METAR CYUL 222100Z 12004KT 15SM OVC042 03/M01 A2966 RMK SC8 SLP046
15:32
V
3 °C 15 mi 4,400 ft 120° 120° 4 kt METAR CYUL 222032Z 12004KT 15SM BKN044 OVC055 03/M01 A2966 RMK SC6SC2 SLP047
15:10
V
3 °C 15 mi 5,500 ft 120° 120° 6 kt METAR CYUL 222010Z 12006KT 15SM -RA OVC055 03/M01 A2967 RMK SC8 SLP049
15:00
V
3 °C 15 mi 5,500 ft 140° 140° 6 kt METAR CYUL 222000Z 14006KT 15SM -DZ OVC055 03/M01 A2967 RMK SC8 SLP050
14:53
V
3 °C 15 mi 5,500 ft 130° 130° 5 kt METAR CYUL 221953Z 13005KT 15SM -DZ OVC055 03/M01 A2967 RMK SC8 SLP050
14:00
V
3 °C 15 mi 5,700 ft 130° 130° 7 kt METAR CYUL 221900Z 13007KT 15SM BKN057 OVC090 03/M02 A2969 RMK SC7AC1 SLP058
13:00
V
2 °C 15 mi 6,200 ft 130° 130° 9 kt METAR CYUL 221800Z 13009KT 15SM FEW042 OVC062 02/M02 A2972 RMK SC2SC6 SLP067
12:00
V
2 °C 15 mi 7,000 ft 120° 120° 8 kt METAR CYUL 221700Z 12008KT 15SM FEW040 OVC070 02/M02 A2976 RMK SC2AC6 PRESFR SLP079
11:00
V
1 °C 15 mi 4,500 ft 130° 130° 6 kt METAR CYUL 221600Z 13006KT 15SM -SHSN SCT030 BKN045 OVC060 01/M02 A2981 RMK SC3SC3SC2 CVCTV CLD EMBD SLP097
10:53
V
1 °C 15 mi 4,300 ft 150° 150° 8 kt METAR CYUL 221553Z 15008KT 15SM -SHSN BKN043 OVC065 01/M03 A2981 RMK SC6SC2 CVCTV CLD EMBD SLP098
10:40
V
1 °C 15 mi 5,000 ft 130° 130° 7 kt METAR CYUL 221540Z 13007KT 15SM BKN050 BKN065 OVC100 01/M02 A2981 RMK SC6SC1AC1 SLP098
10:00
V
0 °C 8 mi 3,300 ft 090° 090° 4 kt METAR CYUL 221500Z 09004KT 030V110 8SM -SN BKN033 OVC045 00/M02 A2983 RMK SC6SC2 SLP105
09:51
M
0 °C 4 mi 4,500 ft 050° 050° 3 kt METAR CYUL 221451Z 05003KT 030V140 4SM -SN SCT025 OVC045 00/M02 A2984 RMK SC3SC5 SLP108
09:39
I
0 °C 2 mi 3,500 ft 130° 130° 4 kt METAR CYUL 221439Z 13004KT 100V160 2SM -SN FEW017 BKN035 OVC060 00/M02 A2984 RMK SN1SF1SC5SC2 SLP108
09:00
V
0 °C 15 mi 3,500 ft 100° 100° 2 kt METAR CYUL 221400Z 10002KT 15SM -SN BKN035 OVC050 00/M03 A2985 RMK SC5SC3 SLP113
08:00
V
1 °C 15 mi 4,200 ft 150° 150° 12 kt METAR CYUL 221300Z 15012KT 15SM -SN BKN042 BKN060 OVC090 01/M03 A2985 RMK SC5SC2AS1 SLP112
07:43
V
0 °C 15 mi 4,500 ft 130° 130° 11 kt METAR CYUL 221243Z 13011KT 15SM -SN FEW030 BKN045 BKN070 OVC090 00/M03 A2985 RMK SC1SC4AC2AS1 SLP112
07:11
V
0 °C 15 mi 4,200 ft 130° 130° 11 kt METAR CYUL 221211Z 13011KT 15SM -SHRA BKN042 OVC052 00/M03 A2986 RMK SC5SC3 CVCTV CLD EMBD SLP117
07:00
V
0 °C 15 mi 5,000 ft 140° 140° 10 kt METAR CYUL 221200Z 14010KT 15SM SCT040 BKN050 OVC080 00/M04 A2988 RMK SC3SC3AC2 SLP121
06:00
V
0 °C 15 mi 13,000 ft 140° 140° 6 kt METAR CYUL 221100Z 14006KT 15SM FEW080 BKN130 00/M04 A2989 RMK AC1AC4 SLP126
05:00
V
0 °C 15 mi 12,000 ft 140° 140° 8 kt METAR CYUL 221000Z 14008KT 15SM FEW055 SCT085 BKN120 00/M04 A2992 RMK SC1AC2AC3 SLP135
04:00
V
1 °C 15 mi 6,000 ft 130° 130° 11 kt METAR CYUL 220900Z 13011KT 15SM FEW050 BKN060 01/M04 A2994 RMK SC2SC5 SLP141
03:00
V
1 °C 15 mi 8,200 ft 140° 140° 7 kt METAR CYUL 220800Z 14007KT 15SM BKN082 01/M05 A2998 RMK AC6 SLP156
02:00
V
1 °C 15 mi - 140° 140° 9 kt METAR CYUL 220700Z 14009KT 15SM FEW070 FEW110 FEW250 01/M05 A3000 RMK AC1AC1CI1 AC TR SLP164
01:00
V
2 °C 15 mi 7,000 ft 150° 150° 10 kt METAR CYUL 220600Z 15010KT 15SM BKN070 OVC100 02/M05 A3002 RMK AC6AC2 SLP171
00:00
V
2 °C 15 mi 6,700 ft 150° 150° 15 kt METAR CYUL 220500Z 15015KT 15SM BKN067 BKN090 OVC120 02/M06 A3004 RMK AC5AC1AS2 SLP176

February 21, 2024

Time Code Weather Temp. Visibility Ceiling Wind METAR/SPECI
23:00
V
2 °C 15 mi 10,000 ft 150° 150° 15 kt METAR CYUL 220400Z 15015KT 15SM SCT075 BKN100 BKN250 02/M06 A3005 RMK AC3AC3CI1 SLP178
22:00
V
2 °C 15 mi 25,000 ft 160° 160° 12 - 18 kt METAR CYUL 220300Z 16012G18KT 15SM FEW120 FEW220 BKN250 02/M07 A3007 RMK AC1CS1CI4 AC TR SLP186
21:00
V
2 °C 15 mi 24,000 ft 160° 160° 13 kt METAR CYUL 220200Z 16013KT 15SM FEW140 OVC240 02/M07 A3007 RMK AC2CS6 CI ASOCTD SLP188
20:00
V
2 °C 15 mi 19,000 ft 150° 150° 14 - 19 kt METAR CYUL 220100Z 15014G19KT 15SM FEW080 BKN190 02/M07 A3008 RMK AC1CS6 CI ASOCTD SLP191
18:00
V
3 °C 15 mi 13,000 ft 130° 130° 8 kt METAR CYUL 212300Z 13008KT 15SM BKN130 03/M07 A3012 RMK AC6 SLP204
17:00
V
3 °C 15 mi 14,000 ft 140° 140° 9 kt METAR CYUL 212200Z 14009KT 15SM BKN140 BKN240 03/M07 A3013 RMK AC5CI2 SLP209
16:00
V
4 °C 15 mi 14,000 ft 140° 140° 11 kt METAR CYUL 212100Z 14011KT 15SM BKN140 BKN240 04/M07 A3015 RMK AC5CI1 SLP216
15:00
V
4 °C 15 mi 14,000 ft 140° 140° 9 kt METAR CYUL 212000Z 14009KT 15SM BKN140 BKN240 04/M07 A3019 RMK AC6CI1 CI TR SLP227
14:00
V
4 °C 15 mi 17,000 ft 110° 110° 8 kt METAR CYUL 211900Z 11008KT 15SM BKN170 BKN250 04/M07 A3021 RMK AC6CI1 SLP233
13:00
V
3 °C 30 mi 25,000 ft 140° 140° 6 kt METAR CYUL 211800Z 14006KT 30SM SCT170 BKN250 03/M07 A3024 RMK AC3CI4 SLP245
12:00
V
2 °C 30 mi - 130° 130° 7 kt METAR CYUL 211700Z 13007KT 110V170 30SM FEW150 SCT250 02/M07 A3028 RMK AC1CI3 PRESFR SLP259
11:00
V
-2 °C 30 mi 25,000 ft 100° 100° 3 kt METAR CYUL 211600Z 10003KT 30SM BKN250 M02/M08 A3033 RMK CI5 SLP274
10:00
V
-8 °C 15 mi - 020° 020° 7 kt METAR CYUL 211500Z 02007KT 15SM FEW250 M08/M12 A3036 RMK CI1 SLP286
09:00
V
-10 °C 15 mi 25,000 ft 010° 010° 10 kt METAR CYUL 211400Z 01010KT 15SM BKN250 M10/M14 A3039 RMK CI5 SLP296
08:00
V
-12 °C 15 mi - 020° 020° 9 kt METAR CYUL 211300Z 02009KT 15SM SCT250 M12/M15 A3039 RMK CI4 SLP295
07:00
V
-12 °C 15 mi 25,000 ft 030° 030° 10 kt METAR CYUL 211200Z 03010KT 15SM BKN250 M12/M15 A3039 RMK CI5 SLP297
06:00
V
-12 °C 15 mi - 020° 020° 8 kt METAR CYUL 211100Z 02008KT 15SM FEW250 M12/M15 A3040 RMK CI1 SLP299
05:00
V
-12 °C 15 mi - 020° 020° 9 kt METAR CYUL 211000Z 02009KT 15SM SCT250 M12/M15 A3042 RMK CI3 SLP304
04:00
V
-12 °C 15 mi - 020° 020° 9 kt METAR CYUL 210900Z 02009KT 15SM FEW250 M12/M15 A3042 RMK CI1 SLP307
03:00
V
-12 °C 15 mi - 030° 030° 9 kt METAR CYUL 210800Z 03009KT 15SM FEW250 M12/M14 A3044 RMK CI1 CI TR SLP311
02:00
V
-11 °C 15 mi - 020° 020° 8 kt METAR CYUL 210700Z 02008KT 15SM FEW250 M11/M14 A3045 RMK CI1 SLP316
01:00
V
-10 °C 15 mi - 030° 030° 5 kt METAR CYUL 210600Z 03005KT 15SM SCT250 M10/M13 A3045 RMK CI3 SLP316